Time;durP1;ratioP1;P1;durP2;ratioP2;P2;SDS_P1;SDS_P2;PMS_P1;PMS_P2;Temp;Humidity;BMP_temperature;BMP_pressure;BME280_temperature;BME280_humidity;BME280_pressure;Samples;Min_cycle;Max_cycle;Signal;HPM_P1;HPM_P2
2023/05/18 07:41:48;;;;;;;1.40;1.30;;;;;;;;;;6168823;22;20051;-83
2023/05/18 08:06:22;;;;;;;1.67;1.50;;;;;;;;;;5011973;28;20129;-88
2023/05/18 08:08:48;;;;;;;1.73;1.63;;;;;;;;;;4995936;28;20038;-86
2023/05/18 08:11:13;;;;;;;2.15;1.60;;;;;;;;;;5013677;28;20025;-86
2023/05/18 08:13:39;;;;;;;1.92;1.52;;;;;;;;;;5013537;28;20061;-82
2023/05/18 08:16:06;;;;;;;2.88;1.60;;;;;;;;;;5013782;28;20076;-90
2023/05/18 08:18:31;;;;;;;1.30;1.20;;;;;;;;;;5014008;28;20443;-90
2023/05/18 08:20:56;;;;;;;1.73;1.63;;;;;;;;;;5016166;28;20026;-86
2023/05/18 08:23:25;;;;;;;1.70;1.60;;;;;;;;;;5018120;28;20084;-90
2023/05/18 08:25:50;;;;;;;1.70;1.60;;;;;;;;;;5017713;28;20026;-90
2023/05/18 08:28:16;;;;;;;2.55;1.90;;;;;;;;;;5017565;28;20030;-91
2023/05/18 08:30:41;;;;;;;2.17;1.65;;;;;;;;;;5017540;28;20069;-88
2023/05/18 08:33:07;;;;;;;2.05;1.90;;;;;;;;;;5017734;28;20088;-89
2023/05/18 08:35:33;;;;;;;2.05;1.90;;;;;;;;;;5018431;28;20380;-89
2023/05/18 08:37:59;;;;;;;2.10;1.77;;;;;;;;;;5018199;28;20052;-88
2023/05/18 08:40:35;;;;;;;1.77;1.67;;;;;;;;;;5017005;28;20096;-88
2023/05/18 08:43:17;;;;;;;3.67;1.67;;;;;;;;;;5016777;28;20096;-88
2023/05/18 08:45:47;;;;;;;3.17;1.80;;;;;;;;;;5016939;28;20385;-88
2023/05/18 08:48:14;;;;;;;;;;;;;;;;;;5017074;28;20029;-88
2023/05/18 08:50:41;;;;;;;1.48;1.38;;;;;;;;;;5016700;28;20007;-88
2023/05/18 08:53:13;;;;;;;1.90;1.80;;;;;;;;;;5016561;28;20172;-87
2023/05/18 08:55:40;;;;;;;2.78;1.75;;;;;;;;;;5016666;28;20036;-87
2023/05/18 08:58:08;;;;;;;1.73;1.60;;;;;;;;;;5016419;28;20037;-88
2023/05/18 09:00:33;;;;;;;3.75;1.98;;;;;;;;;;5016518;28;20480;-87
2023/05/18 09:02:59;;;;;;;3.35;1.90;;;;;;;;;;4998746;28;20034;-87
2023/05/18 09:05:25;;;;;;;2.08;1.60;;;;;;;;;;5016553;28;20032;-87
2023/05/18 09:07:50;;;;;;;2.00;1.90;;;;;;;;;;5016615;28;20524;-87
2023/05/18 09:10:17;;;;;;;2.42;1.60;;;;;;;;;;5016387;28;20049;-88
2023/05/18 09:12:47;;;;;;;1.60;1.40;;;;;;;;;;4998512;28;20469;-87
2023/05/18 09:15:16;;;;;;;1.50;1.40;;;;;;;;;;5016286;28;20056;-88
2023/05/18 09:17:42;;;;;;;1.95;1.50;;;;;;;;;;5016262;28;20022;-88
2023/05/18 09:20:08;;;;;;;3.00;1.85;;;;;;;;;;5016202;28;20026;-88
2023/05/18 09:22:39;;;;;;;2.88;1.60;;;;;;;;;;5017631;28;20030;-87
2023/05/18 09:25:07;;;;;;;1.80;1.70;;;;;;;;;;4998780;28;20041;-87
2023/05/18 09:27:33;;;;;;;2.85;1.40;;;;;;;;;;5016025;28;20484;-87
2023/05/18 09:29:58;;;;;;;1.75;1.50;;;;;;;;;;5016383;28;20034;-87
2023/05/18 09:32:24;;;;;;;1.67;1.58;;;;;;;;;;5014585;28;20033;-87
2023/05/18 09:34:52;;;;;;;2.95;1.80;;;;;;;;;;5016169;28;20456;-86
2023/05/18 09:37:19;;;;;;;1.70;1.60;;;;;;;;;;5015825;28;20096;-88
2023/05/18 09:39:57;;;;;;;3.38;1.88;;;;;;;;;;5015905;28;20354;-88
2023/05/18 09:42:31;;;;;;;1.90;1.70;;;;;;;;;;5015605;28;20026;-87
2023/05/18 09:44:56;;;;;;;3.70;2.53;;;;;;;;;;5015384;28;20488;-87
2023/05/18 09:47:21;;;;;;;2.03;1.70;;;;;;;;;;4998300;28;20033;-86
2023/05/18 09:49:47;;;;;;;3.45;1.85;;;;;;;;;;5015835;28;20076;-88
2023/05/18 09:52:13;;;;;;;3.83;2.35;;;;;;;;;;4998016;28;20033;-88
2023/05/18 09:54:38;;;;;;;3.40;2.00;;;;;;;;;;4998220;28;20026;-88
2023/05/18 09:57:04;;;;;;;1.95;1.60;;;;;;;;;;4998065;28;20042;-87
2023/05/18 09:59:30;;;;;;;1.73;1.60;;;;;;;;;;5015637;28;20033;-87
2023/05/18 10:02:00;;;;;;;1.63;1.52;;;;;;;;;;5016136;28;20064;-87
2023/05/18 10:04:35;;;;;;;;;;;;;;;;;;5016096;28;20026;-87
2023/05/18 10:07:02;;;;;;;1.90;1.70;;;;;;;;;;5015218;28;20000;-87
2023/05/18 10:09:28;;;;;;;2.10;1.90;;;;;;;;;;5015659;28;20026;-87
2023/05/18 10:11:53;;;;;;;1.90;1.80;;;;;;;;;;5015446;28;20026;-87
2023/05/18 10:14:23;;;;;;;2.35;1.80;;;;;;;;;;5015434;28;20495;-88
2023/05/18 10:16:51;;;;;;;2.78;1.85;;;;;;;;;;5015328;28;20040;-88
2023/05/18 10:19:17;;;;;;;3.13;2.13;;;;;;;;;;5015393;28;20021;-87
2023/05/18 10:21:43;;;;;;;3.70;2.00;;;;;;;;;;4997189;28;20061;-88
2023/05/18 10:24:14;;;;;;;2.92;2.20;;;;;;;;;;4997191;28;20072;-88
2023/05/18 10:26:42;;;;;;;2.42;2.22;;;;;;;;;;5014862;28;20030;-89
2023/05/18 10:29:09;;;;;;;2.60;1.90;;;;;;;;;;5015196;28;20148;-89
2023/05/18 10:31:36;;;;;;;3.30;2.10;;;;;;;;;;4997355;28;20056;-89
2023/05/18 10:34:02;;;;;;;2.15;1.95;;;;;;;;;;5014880;28;20119;-88
2023/05/18 10:36:30;;;;;;;2.60;2.40;;;;;;;;;;4997224;28;20026;-88
2023/05/18 10:38:58;;;;;;;3.38;2.50;;;;;;;;;;5014736;28;20018;-88
2023/05/18 10:41:25;;;;;;;3.38;2.50;;;;;;;;;;4997077;28;20030;-87
2023/05/18 10:43:53;;;;;;;2.55;2.20;;;;;;;;;;4996430;28;20034;-88
2023/05/18 10:46:25;;;;;;;3.08;2.30;;;;;;;;;;5014784;28;20381;-90
2023/05/18 10:48:52;;;;;;;2.70;2.50;;;;;;;;;;5014826;28;20096;-89
2023/05/18 10:51:20;;;;;;;3.63;2.27;;;;;;;;;;4997304;28;20429;-89
2023/05/18 10:53:46;;;;;;;3.60;2.30;;;;;;;;;;4996998;28;20102;-90
2023/05/18 10:56:16;;;;;;;2.70;2.50;;;;;;;;;;5014626;28;20481;-90
2023/05/18 10:58:42;;;;;;;2.50;2.30;;;;;;;;;;4996938;28;20443;-89
2023/05/18 11:01:10;;;;;;;3.97;2.40;;;;;;;;;;5014477;28;20026;-89
2023/05/18 11:03:37;;;;;;;3.22;2.50;;;;;;;;;;5014433;28;20088;-89
2023/05/18 11:06:03;;;;;;;2.05;1.95;;;;;;;;;;5014030;28;20071;-89
2023/05/18 11:08:30;;;;;;;4.00;2.42;;;;;;;;;;4996678;28;20026;-89
2023/05/18 11:11:06;;;;;;;2.53;2.33;;;;;;;;;;4996552;28;20022;-89
2023/05/18 11:13:33;;;;;;;3.28;2.38;;;;;;;;;;5014169;28;20022;-89
2023/05/18 11:15:58;;;;;;;3.25;2.10;;;;;;;;;;5014115;28;20034;-89
2023/05/18 11:18:34;;;;;;;2.85;2.03;;;;;;;;;;5014270;28;20029;-88
2023/05/18 11:21:00;;;;;;;4.25;2.10;;;;;;;;;;5014279;28;20029;-89
2023/05/18 11:23:29;;;;;;;;;;;;;;;;;;4996740;28;20381;-89
2023/05/18 11:26:01;;;;;;;;;;;;;;;;;;4996854;28;19968;-89
2023/05/18 11:28:27;;;;;;;;;;;;;;;;;;4997510;28;19913;-89
2023/05/18 11:30:52;;;;;;;;;;;;;;;;;;5026613;28;20386;-90
2023/05/18 11:33:25;;;;;;;;;;;;;;;;;;5034770;28;19967;-86
2023/05/18 11:35:54;;;;;;;;;;;;;;;;;;5034594;28;19913;-87
2023/05/18 11:38:19;;;;;;;;;;;;;;;;;;5034130;28;19917;-87
2023/05/18 11:40:48;;;;;;;;;;;;;;;;;;5034279;28;20338;-88
2023/05/18 11:43:18;;;;;;;;;;;;;;;;;;5033943;28;19920;-86
2023/05/18 11:45:54;;;;;;;;;;;;;;;;;;5034676;28;19912;-88
2023/05/18 11:48:23;;;;;;;;;;;;;;;;;;5035309;28;19919;-87
2023/05/18 16:02:56;;;;;;;;;;;;;;;;;;4959907;28;19930;-86
2023/05/18 16:05:22;;;;;;;;;;;;;;;;;;4956045;29;19919;-86
2023/05/18 16:07:47;;;;;;;;;;;;;;;;;;4938934;29;19919;-86
2023/05/18 16:10:13;;;;;;;;;;;;;;;;;;4956356;29;19915;-86
2023/05/18 16:12:38;;;;;;;;;;;;;;;;;;4955569;29;19914;-87
2023/05/18 16:15:04;;;;;;;;;;;;;;;;;;4957299;28;19970;-87
2023/05/18 16:17:29;;;;;;;;;;;;;;;;;;4955837;29;19936;-87
2023/05/18 16:19:54;;;;;;;;;;;;;;;;;;4961398;28;19942;-87
2023/05/18 16:22:20;;;;;;;;;;;;;;;;;;4959344;29;19915;-85
2023/05/18 16:24:45;;;;;;;;;;;;;;;;;;4959849;29;19914;-85
2023/05/18 16:27:10;;;;;;;;;;;;;;;;;;4958008;29;19957;-88
2023/05/18 16:29:35;;;;;;;;;;;;;;;;;;4957659;29;19914;-88
2023/05/18 16:32:01;;;;;;;;;;;;;;;;;;4954669;29;19997;-87
2023/05/18 16:34:26;;;;;;;;;;;;;;;;;;4956088;29;20038;-88
2023/05/18 16:36:51;;;;;;;;;;;;;;;;;;4956576;29;19915;-88
2023/05/18 16:39:17;;;;;;;;;;;;;;;;;;4955737;29;19978;-87
2023/05/18 16:54:28;;;;;;;;;;;;;;;;;;5026238;28;19916;-87
2023/05/18 16:56:53;;;;;;;;;;;;;;;;;;5025911;28;19913;-86
2023/05/18 16:59:21;;;;;;;;;;;;;;;;;;5016818;28;19917;-87
2023/05/18 17:01:46;;;;;;;;;;;;;;;;;;5016401;28;20284;-87
2023/05/18 17:04:12;;;;;;;;;;;;;;;;;;5016699;28;19943;-88
2023/05/18 17:06:37;;;;;;;;;;;;;;;;;;5016195;28;19996;-86
2023/05/18 17:09:03;;;;;;;;;;;;;;;;;;5022610;28;19913;-87
2023/05/18 17:11:28;;;;;;;;;;;;;;;;;;5022386;28;19921;-86
2023/05/18 17:13:53;;;;;;;;;;;;;;;;;;5016627;28;19920;-87
2023/05/18 17:16:20;;;;;;;;;;;;;;;;;;5016749;28;19914;-87
2023/05/18 17:18:46;;;;;;;;;;;;;;;;;;5016895;28;19914;-87
2023/05/18 17:21:11;;;;;;;;;;;;;;;;;;5016656;28;20762;-83
2023/05/18 17:23:36;;;;;;;;;;;;;;;;;;5023449;28;20007;-87
2023/05/18 17:26:02;;;;;;;;;;;;;;;;;;5021414;28;19913;-86
2023/05/18 17:28:27;;;;;;;;;;;;;;;;;;5036582;28;19913;-88
2023/05/18 17:30:52;;;;;;;;;;;;;;;;;;5036271;28;19917;-88
2023/05/18 17:33:18;;;;;;;;;;;;;;;;;;5036041;28;19920;-86
2023/05/18 17:35:43;;;;;;;;;;;;;;;;;;5036765;28;20256;-87
2023/05/18 17:38:08;;;;;;;;;;;;;;;;;;5037408;28;19959;-87
2023/05/18 17:40:34;;;;;;;;;;;;;;;;;;5029800;28;19914;-85
2023/05/18 17:42:59;;;;;;;;;;;;;;;;;;5017546;28;19917;-87
2023/05/18 17:45:24;;;;;;;;;;;;;;;;;;4999065;28;20015;-86
2023/05/18 17:47:50;;;;;;;;;;;;;;;;;;5016859;28;19913;-88
2023/05/18 17:50:15;;;;;;;;;;;;;;;;;;5016794;28;19917;-89
2023/05/18 17:52:40;;;;;;;;;;;;;;;;;;5015738;28;20331;-85
2023/05/18 17:55:06;;;;;;;;;;;;;;;;;;5015847;28;19952;-89
2023/05/18 17:57:32;;;;;;;;;;;;;;;;;;5015557;28;19976;-85
2023/05/18 17:59:58;;;;;;;;;;;;;;;;;;5019304;28;19967;-84
2023/05/18 18:02:23;;;;;;;;;;;;;;;;;;5035680;28;19917;-89
2023/05/18 18:04:49;;;;;;;;;;;;;;;;;;5035335;28;19967;-88
2023/05/18 18:07:14;;;;;;;;;;;;;;;;;;5035490;28;19913;-87
2023/05/18 18:09:39;;;;;;;;;;;;;;;;;;5035869;28;20011;-88
2023/05/18 18:12:05;;;;;;;;;;;;;;;;;;5035561;28;19917;-86
2023/05/18 18:14:30;;;;;;;;;;;;;;;;;;5029660;28;20328;-88
2023/05/18 18:16:55;;;;;;;;;;;;;;;;;;5015572;28;19913;-86
2023/05/18 18:19:21;;;;;;;;;;;;;;;;;;5015447;28;19921;-86
2023/05/18 18:21:46;;;;;;;;;;;;;;;;;;4997841;28;19936;-86
2023/05/18 18:24:12;;;;;;;;;;;;;;;;;;5015239;28;20351;-88
2023/05/18 18:26:39;;;;;;;;;;;;;;;;;;5015286;28;20371;-90
2023/05/18 18:29:05;;;;;;;;;;;;;;;;;;5015267;28;19913;-85
2023/05/18 18:31:30;;;;;;;;;;;;;;;;;;5015201;28;20439;-86
2023/05/18 18:33:55;;;;;;;;;;;;;;;;;;5015190;28;19925;-87
2023/05/18 18:36:21;;;;;;;;;;;;;;;;;;5015206;28;19921;-87
2023/05/18 18:38:46;;;;;;;;;;;;;;;;;;5015177;28;20280;-87
2023/05/18 18:41:13;;;;;;;;;;;;;;;;;;5015139;28;19936;-86
2023/05/18 18:43:39;;;;;;;;;;;;;;;;;;4997361;28;20355;-87
2023/05/18 18:46:04;;;;;;;;;;;;;;;;;;4997534;28;20016;-86
2023/05/18 18:48:30;;;;;;;;;;;;;;;;;;5015209;28;20331;-87
2023/05/18 18:50:55;;;;;;;;;;;;;;;;;;5014762;28;19917;-83
2023/05/18 18:53:21;;;;;;;;;;;;;;;;;;5014653;28;20371;-86
2023/05/18 18:55:46;;;;;;;;;;;;;;;;;;5014755;28;19914;-86
2023/05/18 18:58:12;;;;;;;;;;;;;;;;;;5015064;28;20000;-88
2023/05/18 19:00:37;;;;;;;;;;;;;;;;;;5023311;28;19959;-87
2023/05/18 19:03:02;;;;;;;;;;;;;;;;;;5016863;28;19963;-86
2023/05/18 19:05:29;;;;;;;;;;;;;;;;;;5034316;28;19920;-86
2023/05/18 19:07:55;;;;;;;;;;;;;;;;;;5034259;28;19920;-87
2023/05/18 19:10:21;;;;;;;;;;;;;;;;;;5034286;28;19913;-87
2023/05/18 19:12:47;;;;;;;;;;;;;;;;;;5016577;28;19936;-87
2023/05/18 19:15:13;;;;;;;;;;;;;;;;;;5022772;28;20277;-86
2023/05/18 19:17:39;;;;;;;;;;;;;;;;;;4996973;28;20418;-86
2023/05/18 19:20:06;;;;;;;;;;;;;;;;;;4996858;28;19913;-86
2023/05/18 19:22:32;;;;;;;;;;;;;;;;;;5014622;28;19956;-86
2023/05/18 19:24:57;;;;;;;;;;;;;;;;;;5014562;28;20388;-87
2023/05/18 19:27:22;;;;;;;;;;;;;;;;;;5014218;28;19919;-86
2023/05/18 19:29:48;;;;;;;;;;;;;;;;;;5014560;28;19914;-86
2023/05/18 19:32:13;;;;;;;;;;;;;;;;;;5014536;28;19921;-87
2023/05/18 19:34:38;;;;;;;;;;;;;;;;;;5014560;28;19982;-88
2023/05/18 19:37:04;;;;;;;;;;;;;;;;;;5014439;28;19914;-86
2023/05/18 19:39:29;;;;;;;;;;;;;;;;;;5014344;28;19913;-89
2023/05/18 19:41:54;;;;;;;;;;;;;;;;;;5014598;28;19913;-88
2023/05/18 19:44:20;;;;;;;;;;;;;;;;;;5014312;28;19913;-88
2023/05/18 19:46:45;;;;;;;;;;;;;;;;;;5014319;28;19913;-88
2023/05/18 19:49:11;;;;;;;;;;;;;;;;;;5014706;28;20380;-88
2023/05/18 19:51:36;;;;;;;;;;;;;;;;;;5014450;28;20272;-88
2023/05/18 19:54:02;;;;;;;;;;;;;;;;;;5014163;28;19925;-88
2023/05/18 19:56:27;;;;;;;;;;;;;;;;;;5014440;28;19959;-89
2023/05/18 19:58:53;;;;;;;;;;;;;;;;;;5014435;28;19920;-87
2023/05/18 20:01:19;;;;;;;;;;;;;;;;;;5014353;28;19913;-87
2023/05/18 20:03:45;;;;;;;;;;;;;;;;;;5013919;28;20327;-86
2023/05/18 20:06:11;;;;;;;;;;;;;;;;;;5014217;28;19914;-88
2023/05/18 20:08:36;;;;;;;;;;;;;;;;;;5014193;28;20286;-87
2023/05/18 20:11:02;;;;;;;;;;;;;;;;;;5014034;28;19917;-87
2023/05/18 20:13:29;;;;;;;;;;;;;;;;;;5014280;28;20229;-86
2023/05/18 20:15:55;;;;;;;;;;;;;;;;;;4996865;28;20323;-86
2023/05/18 20:18:22;;;;;;;;;;;;;;;;;;5018006;28;20052;-87
2023/05/18 20:20:48;;;;;;;;;;;;;;;;;;5017826;28;19909;-87
2023/05/18 20:23:14;;;;;;;;;;;;;;;;;;5017911;28;20043;-87
2023/05/18 20:25:43;;;;;;;;;;;;;;;;;;5017676;28;19960;-87
2023/05/18 20:28:09;;;;;;;;;;;;;;;;;;5017793;28;20292;-86
2023/05/18 20:30:35;;;;;;;;;;;;;;;;;;5017560;28;19914;-85
2023/05/18 20:33:02;;;;;;;;;;;;;;;;;;5017582;28;19996;-85
2023/05/18 20:35:28;;;;;;;;;;;;;;;;;;5017845;28;20286;-86
2023/05/18 20:37:54;;;;;;;;;;;;;;;;;;5017441;28;19913;-85
2023/05/18 20:40:21;;;;;;;;;;;;;;;;;;5017319;28;20291;-86
2023/05/18 20:42:47;;;;;;;;;;;;;;;;;;5033426;28;20011;-88
2023/05/18 20:45:12;;;;;;;;;;;;;;;;;;5037986;28;20348;-86
2023/05/18 20:47:40;;;;;;;;;;;;;;;;;;5037230;28;19913;-86
2023/05/18 20:50:06;;;;;;;;;;;;;;;;;;5019427;28;20008;-87
2023/05/18 20:52:31;;;;;;;;;;;;;;;;;;5037192;28;20401;-87
2023/05/18 20:54:57;;;;;;;;;;;;;;;;;;5036815;28;19921;-87
2023/05/18 20:57:22;;;;;;;;;;;;;;;;;;5037083;28;19919;-86
2023/05/18 20:59:47;;;;;;;;;;;;;;;;;;5036804;28;19913;-85
2023/05/18 21:02:13;;;;;;;;;;;;;;;;;;5036861;28;19996;-84
2023/05/18 21:04:38;;;;;;;;;;;;;;;;;;5036833;28;19974;-86
2023/05/18 21:07:04;;;;;;;;;;;;;;;;;;5036574;28;19917;-87
2023/05/18 21:09:30;;;;;;;;;;;;;;;;;;5018779;28;19916;-87
2023/05/18 21:11:56;;;;;;;;;;;;;;;;;;5036829;28;19979;-85
2023/05/18 21:14:21;;;;;;;;;;;;;;;;;;5036696;28;20364;-86
2023/05/18 21:16:47;;;;;;;;;;;;;;;;;;5036658;28;20300;-87
2023/05/18 21:19:12;;;;;;;;;;;;;;;;;;5036575;28;19936;-87
2023/05/18 21:21:37;;;;;;;;;;;;;;;;;;5036473;28;20279;-86
2023/05/18 21:24:03;;;;;;;;;;;;;;;;;;5036286;28;20275;-85
2023/05/18 21:26:28;;;;;;;;;;;;;;;;;;5036313;28;19947;-88
2023/05/18 21:28:53;;;;;;;;;;;;;;;;;;5036340;28;19920;-86
2023/05/18 21:31:18;;;;;;;;;;;;;;;;;;5036245;28;19917;-85
2023/05/18 21:33:46;;;;;;;;;;;;;;;;;;5036597;28;19913;-85
2023/05/18 21:36:15;;;;;;;;;;;;;;;;;;5036072;28;20272;-87
2023/05/18 21:38:40;;;;;;;;;;;;;;;;;;5036101;28;19923;-83
2023/05/18 21:41:06;;;;;;;;;;;;;;;;;;5036473;28;19917;-84
2023/05/18 21:43:31;;;;;;;;;;;;;;;;;;5036104;28;19940;-85
2023/05/18 21:45:56;;;;;;;;;;;;;;;;;;5035976;28;19920;-84
2023/05/18 21:48:22;;;;;;;;;;;;;;;;;;5036218;28;19913;-84
2023/05/18 21:50:47;;;;;;;;;;;;;;;;;;5035782;28;20046;-86
2023/05/18 21:53:12;;;;;;;;;;;;;;;;;;5018179;28;19976;-87
2023/05/18 21:55:38;;;;;;;;;;;;;;;;;;5035939;28;20000;-84
2023/05/18 21:58:03;;;;;;;;;;;;;;;;;;5035851;28;19920;-87
2023/05/18 22:00:28;;;;;;;;;;;;;;;;;;5035781;28;19952;-85
2023/05/18 22:02:53;;;;;;;;;;;;;;;;;;5036004;28;19919;-87
2023/05/18 22:05:19;;;;;;;;;;;;;;;;;;5035758;28;19913;-83
2023/05/18 22:07:44;;;;;;;;;;;;;;;;;;5035476;28;19913;-84
2023/05/18 22:10:10;;;;;;;;;;;;;;;;;;5035541;28;19913;-87
2023/05/18 22:12:42;;;;;;;;;;;;;;;;;;5017767;28;19916;-84
2023/05/18 22:15:09;;;;;;;;;;;;;;;;;;5017776;28;19913;-86
2023/05/18 22:17:35;;;;;;;;;;;;;;;;;;5035432;28;19944;-83
2023/05/18 22:20:01;;;;;;;;;;;;;;;;;;5035322;28;19966;-84
2023/05/18 22:22:26;;;;;;;;;;;;;;;;;;5035413;28;19917;-84
2023/05/18 22:24:52;;;;;;;;;;;;;;;;;;5035192;28;19913;-84
2023/05/18 22:27:17;;;;;;;;;;;;;;;;;;5035399;28;19913;-85
2023/05/18 22:29:42;;;;;;;;;;;;;;;;;;5017594;28;19913;-87
2023/05/18 22:32:08;;;;;;;;;;;;;;;;;;5035177;28;19913;-85
